Andover, CT (06232)

12:56 PM EDT on August 27, 2014 (GMT -0400)
Baker Brook/Daria Dr. | Change Station
CLOSE
Current Station
Personal Weather Station
Location: Bolton, CT
Elevation: 568 ft
Nearby Weather Stations
Active Advisory: Air Quality Alert

Elev 568 ft 41.73 °N, 72.42 °W | Updated 2 seconds ago

Clear
Clear
87.8 °F
Feels Like 92 °F
N
2.7
Wind Variable Wind from NW
Gusts 2.7 mph

Today
High -- | Low -- °F
--% Chance of Precip.
Yesterday
High -- | Low -- °F
Precip. -- in
6:10 AM 7:31 PM
Waxing Crescent, 4% visible
Pressure 29.95 in
Visibility 10.0 miles
Clouds Clear
Heat Index 92 °F
Dew Point 69 °F
Humidity 54%
Rainfall 0.00 in
Snow Depth Not available.
UV 10 out of 12
Pollen 9.30 out of 12
Ozone Good
PM2.5 Good
Flu Activity Not available.
METAR KIJD 271652Z AUTO 21007KT 10SM CLR 29/19 A2996 RMK AO2 SLP142 T02890189

More Conditions Fewer Conditions

Pressure 29.95 in
Visibility 10.0 miles
Clouds Clear
Heat Index 92 °F
Dew Point 69 °F
Humidity 54%
Rainfall 0.00 in
Snow Depth Not available.
UV 10 out of 12
Pollen 9.30 out of 12
Ozone Good
PM2.5 Good
Flu Activity Not available.
METAR KIJD 271652Z AUTO 21007KT 10SM CLR 29/19 A2996 RMK AO2 SLP142 T02890189

More Conditions Fewer Conditions

10-Day Weather Forecast

Almanac

Astronomy

Aug. 27, 2014 Rise Set
Actual Time 6:10 AM EDT 7:31 PM EDT
Civil Twilight 5:41 AM EDT 7:59 PM EDT
Nautical Twilight 5:06 AM EDT 8:34 PM EDT
Astronomical Twilight 4:29 AM EDT 9:11 PM EDT
Moon 8:05 AM EDT 8:19 PM EDT
Length of Visible Light 14h 18m
Length of Day
13h 20m
Tomorrow will be 2m 39s shorter.
Waxing Crescent, 4% of the Moon is Illuminated
Today
Waxing Crescent
Sep 2
First Quarter
Sep 8
Full
Sep 15
Last Quarter
Sep 24
New

Today's Extremes

State Highs State Lows

Community

WunderPhotos

Upload Photos

1,747,727 photos uploaded!

Nearby

Air Quality

  Air Quality AQ Index Pollutant
Yesterday Good
PM2.5
Yesterday Good
OZONE
Current Good
PM2.5
Current Good
OZONE
Wednesday Unhealthy for Sensitive Groups
OZONE
Wednesday Moderate
PM2.5

Snow Depth

Station Depth Elevation
No new snow has been reported.

Earthquake Activity

City Distance Mag. Time & Date
No recent earthquake activity has been reported nearby.
Minimum magnitude displayed is 2.5.

Coastal Water Temperatures

Place Temperature
New London, CT 70.0 °F
Newport, RI 70.0 °F
Quonset Point, RI 70.0 °F
Conimicut Light, RI 72.0 °F
Providence, RI 73.0 °F

Nearby Weather Stations